Time;durP1;ratioP1;P1;durP2;ratioP2;P2;SDS_P1;SDS_P2;PMS_P1;PMS_P2;Temp;Humidity;BMP_temperature;BMP_pressure;BME280_temperature;BME280_humidity;BME280_pressure;Samples;Min_cycle;Max_cycle;Signal;HPM_P1;HPM_P2
2021/06/12 00:18:13;;;;;;;;;;;;;;;;;;;;;
2021/06/12 00:49:45;;;;;;;7.13;6.57;;;;;;;19.36;73.61;101007.94;4895064;29;20120;-95
2021/06/12 01:18:50;;;;;;;;;;;;;;;;;;;;;
2021/06/12 01:33:37;;;;;;;7.80;7.10;;;;;;;19.08;74.76;100985.13;4850637;29;20068;-95
2021/06/12 01:47:32;;;;;;;;;;;;;;;;;;;;;
2021/06/12 01:51:18;;;;;;;;;;;;;;;;;;;;;
2021/06/12 02:12:38;;;;;;;;;;;;;;;;;;;;;
2021/06/12 02:16:16;;;;;;;;;;;;;;;;;;;;;
2021/06/12 02:23:25;;;;;;;;;;;;;;;;;;;;;
2021/06/12 02:27:29;;;;;;;;;;;;;;;;;;;;;
2021/06/12 02:31:38;;;;;;;11.23;8.55;;;;;;;18.76;77.00;100968.66;4951939;28;20058;-95
2021/06/12 02:35:39;;;;;;;;;;;;;;;;;;;;;
2021/06/12 02:39:12;;;;;;;;;;;;;;;;;;;;;
2021/06/12 03:03:39;;;;;;;;;;;;;;;;;;;;;
2021/06/12 03:07:34;;;;;;;15.98;13.20;;;;;;;18.32;80.23;100974.69;5026258;28;20056;-96
2021/06/12 03:33:07;;;;;;;;;;;;;;;;;;;;;
2021/06/12 03:58:17;;;;;;;14.05;11.68;;;;;;;18.06;79.62;100961.53;4981222;28;20064;-95
2021/06/12 04:12:39;;;;;;;22.75;12.07;;;;;;;18.25;78.36;100961.72;5035886;22;20055;-88
2021/06/12 04:15:14;;;;;;;16.15;12.35;;;;;;;18.30;78.16;100957.09;5054852;28;20051;-85
2021/06/12 04:17:45;;;;;;;16.52;11.73;;;;;;;18.32;77.92;100952.63;5026619;28;20048;-84
2021/06/12 04:20:17;;;;;;;15.00;11.77;;;;;;;18.30;77.78;100955.34;5048976;28;20041;-87
2021/06/12 04:22:43;;;;;;;19.45;11.30;;;;;;;18.31;77.74;100962.34;5022654;28;20119;-89
2021/06/12 04:25:12;;;;;;;16.08;12.27;;;;;;;18.35;77.52;100960.47;5037165;28;20102;-86
2021/06/12 04:27:47;;;;;;;15.02;11.60;;;;;;;18.39;77.10;100951.47;5013577;28;21118;-86
2021/06/12 04:30:15;;;;;;;17.40;12.98;;;;;;;18.41;77.05;100947.00;5036428;28;21019;-85
2021/06/12 04:32:49;;;;;;;15.70;12.68;;;;;;;18.44;76.87;100951.31;5044990;28;20499;-86
2021/06/12 04:35:16;;;;;;;16.33;12.93;;;;;;;18.44;76.78;100949.50;5030966;28;20523;-86
2021/06/12 04:37:45;;;;;;;18.00;13.57;;;;;;;18.43;76.90;100954.88;5050253;28;20052;-86
2021/06/12 04:40:27;;;;;;;18.48;13.27;;;;;;;18.42;77.15;100961.09;5048577;28;20043;-88
2021/06/12 04:42:55;;;;;;;20.40;13.13;;;;;;;18.43;76.92;100958.38;5022105;28;20057;-86
2021/06/12 04:45:23;;;;;;;23.52;14.75;;;;;;;18.45;77.13;100953.03;5022472;28;20057;-86
2021/06/12 04:47:51;;;;;;;21.40;15.07;;;;;;;18.43;77.08;100960.19;5041329;28;20513;-87
2021/06/12 04:50:18;;;;;;;21.17;13.75;;;;;;;18.39;77.16;100948.81;5037933;28;20727;-86
2021/06/12 04:52:50;;;;;;;18.05;13.55;;;;;;;18.43;76.94;100954.88;5031879;28;20048;-87
2021/06/12 04:55:17;;;;;;;21.30;15.35;;;;;;;18.48;76.84;100952.91;5038070;28;20064;-88
2021/06/12 04:57:45;;;;;;;21.45;15.45;;;;;;;18.55;76.41;100958.84;5035982;28;20045;-87
2021/06/12 05:00:14;;;;;;;16.35;13.13;;;;;;;18.63;76.30;100952.34;5034949;28;20045;-87
2021/06/12 05:02:40;;;;;;;23.90;15.80;;;;;;;18.70;76.28;100949.47;5017057;28;20063;-86
2021/06/12 05:05:11;;;;;;;22.80;14.52;;;;;;;18.75;76.15;100947.50;5046357;28;20139;-88
2021/06/12 05:07:43;;;;;;;21.80;14.90;;;;;;;18.76;75.82;100942.13;5018044;28;20045;-84
2021/06/12 05:10:11;;;;;;;25.42;14.63;;;;;;;18.78;75.55;100944.72;5000968;28;20140;-86
2021/06/12 05:12:39;;;;;;;18.55;13.18;;;;;;;18.85;75.68;100955.03;4998072;28;20049;-85
2021/06/12 05:15:10;;;;;;;19.67;13.98;;;;;;;18.95;75.39;100968.84;5032634;28;20045;-86
2021/06/12 05:17:40;;;;;;;23.02;15.63;;;;;;;19.00;75.04;100968.66;5005106;28;20044;-87
2021/06/12 05:20:08;;;;;;;20.25;14.82;;;;;;;19.02;75.18;100953.56;5013266;28;20490;-87
2021/06/12 05:22:34;;;;;;;16.20;12.98;;;;;;;19.04;75.12;100956.16;5014897;28;20041;-86
2021/06/12 05:25:06;;;;;;;16.30;12.93;;;;;;;19.04;75.16;100956.16;5031995;28;20076;-84
2021/06/12 05:27:34;;;;;;;26.02;15.10;;;;;;;19.05;75.12;100957.88;5033925;28;20749;-87
2021/06/12 05:30:00;;;;;;;18.30;13.23;;;;;;;19.06;75.15;100956.94;5027642;28;20064;-84
2021/06/12 05:32:26;;;;;;;17.88;13.85;;;;;;;19.07;74.82;100964.81;5016908;28;20516;-85
2021/06/12 05:34:56;;;;;;;20.25;13.73;;;;;;;19.08;74.86;100982.47;5026635;28;20136;-86
2021/06/12 05:37:22;;;;;;;24.02;14.45;;;;;;;19.10;74.52;100980.66;5015611;28;20048;-87
2021/06/12 05:39:50;;;;;;;23.83;14.85;;;;;;;19.12;74.70;100970.81;4999188;28;20073;-88
2021/06/12 05:42:17;;;;;;;20.13;13.88;;;;;;;19.13;74.41;100974.34;5023698;28;20053;-86
2021/06/12 05:44:46;;;;;;;21.98;13.68;;;;;;;19.13;74.63;100983.16;5035729;28;20571;-86
2021/06/12 05:47:13;;;;;;;17.85;14.43;;;;;;;19.12;74.78;100970.81;5023748;28;20048;-86
2021/06/12 05:49:55;;;;;;;;;;;;;;;;;;;;;
2021/06/12 05:52:23;;;;;;;26.63;16.30;;;;;;;19.14;74.68;100962.81;4993473;28;20820;-86
2021/06/12 05:54:52;;;;;;;20.95;15.45;;;;;;;19.05;74.99;100971.16;5020521;28;20085;-86
2021/06/12 05:57:23;;;;;;;19.23;14.05;;;;;;;18.99;75.21;100975.78;5009416;28;20060;-87
2021/06/12 05:59:50;;;;;;;23.38;15.10;;;;;;;18.94;75.39;100974.19;5035450;28;21554;-85
2021/06/12 06:02:16;;;;;;;24.88;16.85;;;;;;;18.84;75.68;100968.38;5036160;28;20065;-84
2021/06/12 06:04:43;;;;;;;21.90;15.65;;;;;;;18.81;76.03;100971.13;5024741;28;20052;-85
2021/06/12 06:07:11;;;;;;;22.70;15.38;;;;;;;18.82;75.88;100970.22;5010303;28;20056;-86
2021/06/12 06:09:40;;;;;;;25.00;16.52;;;;;;;18.95;75.64;100975.94;5038152;28;20072;-85
2021/06/12 06:12:07;;;;;;;19.45;15.60;;;;;;;19.05;75.18;100981.75;5014941;28;20110;-84
2021/06/12 06:14:33;;;;;;;22.33;15.20;;;;;;;19.08;75.23;100979.81;5006464;28;20048;-85
2021/06/12 06:17:05;;;;;;;20.35;16.35;;;;;;;19.10;75.26;100979.75;5007401;28;20403;-85
2021/06/12 06:19:32;;;;;;;21.15;15.60;;;;;;;19.12;74.96;100972.63;5009946;28;20166;-86
2021/06/12 06:21:59;;;;;;;23.27;16.10;;;;;;;19.05;75.27;100981.75;5020050;28;20056;-86
2021/06/12 06:24:28;;;;;;;27.40;17.48;;;;;;;19.05;75.73;100981.75;5036632;28;20049;-85
2021/06/12 06:26:54;;;;;;;23.95;16.52;;;;;;;18.98;75.92;100973.16;5037001;28;20059;-85
2021/06/12 06:29:22;;;;;;;23.67;15.63;;;;;;;18.96;75.94;100969.72;5035192;28;20944;-86
2021/06/12 06:31:49;;;;;;;26.60;15.77;;;;;;;18.91;76.16;100964.56;5034189;28;20050;-86
2021/06/12 06:34:17;;;;;;;23.13;17.98;;;;;;;18.82;76.55;100965.75;5009436;28;20149;-85
2021/06/12 06:36:49;;;;;;;23.35;16.73;;;;;;;18.82;76.68;100960.44;5007792;28;20045;-85
2021/06/12 06:39:15;;;;;;;29.45;19.60;;;;;;;18.82;76.57;100957.78;5041616;28;20195;-84
2021/06/12 06:41:41;;;;;;;24.80;17.02;;;;;;;18.84;76.57;100960.41;5033249;28;20036;-87
2021/06/12 06:44:08;;;;;;;27.27;16.55;;;;;;;18.96;76.03;100961.75;5022513;28;20739;-86
2021/06/12 06:46:36;;;;;;;21.73;16.02;;;;;;;19.05;75.64;100964.03;5032812;28;20071;-85
2021/06/12 06:49:04;;;;;;;26.13;15.60;;;;;;;19.20;75.18;100961.69;5024964;28;20671;-88
2021/06/12 06:51:34;;;;;;;23.95;14.48;;;;;;;19.34;74.71;100948.72;5022957;28;20044;-87
2021/06/12 06:54:03;;;;;;;23.58;16.10;;;;;;;19.50;74.19;100960.47;5021599;28;20036;-88
2021/06/12 06:56:32;;;;;;;25.00;17.33;;;;;;;19.46;73.95;100952.66;5023615;28;20052;-88
2021/06/12 06:58:58;;;;;;;28.60;15.75;;;;;;;19.44;74.04;100950.09;5026447;28;20053;-86
2021/06/12 07:01:36;;;;;;;24.90;15.98;;;;;;;19.41;74.25;100952.88;5040820;28;20458;-87
2021/06/12 07:04:04;;;;;;;20.70;15.57;;;;;;;19.47;73.97;100959.72;5015494;28;20071;-86
2021/06/12 07:06:37;;;;;;;24.33;16.05;;;;;;;19.51;73.81;100948.03;5019706;28;20049;-88
2021/06/12 07:09:04;;;;;;;21.27;15.45;;;;;;;19.62;73.68;100950.22;5021879;28;20064;-86
2021/06/12 07:11:30;;;;;;;24.50;15.65;;;;;;;19.82;72.67;100949.44;5011109;28;20272;-86
2021/06/12 07:14:04;;;;;;;22.60;14.30;;;;;;;20.05;71.62;100928.94;5013556;28;20161;-86
2021/06/12 07:16:31;;;;;;;21.08;15.00;;;;;;;20.13;71.12;100934.81;5028787;28;20056;-86
2021/06/12 07:19:00;;;;;;;20.60;15.52;;;;;;;20.12;70.59;100933.09;5017165;28;20404;-89
2021/06/12 07:21:28;;;;;;;22.25;14.43;;;;;;;20.06;70.71;100922.72;5047536;28;20064;-89
2021/06/12 07:23:59;;;;;;;20.67;14.05;;;;;;;20.07;71.13;100927.97;5033745;28;20044;-87
2021/06/12 07:26:25;;;;;;;18.35;13.02;;;;;;;20.24;70.52;100929.00;5017433;28;20219;-84
2021/06/12 07:28:51;;;;;;;15.25;12.75;;;;;;;20.36;70.21;100930.25;4993742;28;20052;-85
2021/06/12 07:31:18;;;;;;;16.75;11.85;;;;;;;20.48;69.87;100929.66;5019728;28;20056;-85
2021/06/12 07:33:46;;;;;;;14.38;11.77;;;;;;;20.39;69.50;100928.31;5041138;28;20053;-86
2021/06/12 07:36:15;;;;;;;15.80;11.60;;;;;;;20.24;69.74;100927.19;5040541;28;20064;-86
2021/06/12 07:38:41;;;;;;;20.60;13.23;;;;;;;20.14;70.37;100932.09;5037077;28;20052;-88
2021/06/12 07:41:09;;;;;;;18.48;12.75;;;;;;;20.12;70.12;100939.25;5035428;28;20385;-85
2021/06/12 07:43:37;;;;;;;16.27;11.55;;;;;;;20.08;70.37;100937.66;5058197;28;20419;-85
2021/06/12 07:46:05;;;;;;;16.23;11.35;;;;;;;20.03;70.59;100934.34;5040671;28;20049;-86
2021/06/12 07:48:32;;;;;;;14.45;11.38;;;;;;;20.08;70.23;100929.69;5023280;28;20072;-86
2021/06/12 07:50:58;;;;;;;16.35;11.75;;;;;;;20.21;69.67;100932.66;5019218;28;20497;-85
2021/06/12 07:53:28;;;;;;;13.35;10.93;;;;;;;20.26;69.63;100943.06;5032030;28;20535;-86
2021/06/12 07:55:55;;;;;;;13.60;10.90;;;;;;;20.47;69.25;100939.44;5039389;28;20041;-86
2021/06/12 07:58:29;;;;;;;14.50;10.75;;;;;;;20.78;68.47;100937.19;5034020;28;20052;-86
2021/06/12 08:06:38;;;;;;;12.05;9.40;;;;;;;21.05;67.03;100935.00;5644198;23;20034;-86
2021/06/12 08:15:11;;;;;;;12.82;8.98;;;;;;;21.38;65.37;100925.44;5133439;23;20217;-87
2021/06/12 08:17:38;;;;;;;10.70;9.27;;;;;;;21.17;66.46;100924.69;4877948;29;20169;-87
2021/06/12 08:27:14;;;;;;;13.68;9.13;;;;;;;21.53;65.42;100934.47;4891104;23;20048;-88
2021/06/12 08:29:40;;;;;;;13.65;8.95;;;;;;;21.25;65.66;100931.38;4870385;29;20049;-85
2021/06/12 08:32:12;;;;;;;10.45;8.45;;;;;;;21.33;65.70;100923.03;4854811;29;20059;-85
2021/06/12 08:34:38;;;;;;;12.73;9.63;;;;;;;21.41;65.10;100912.84;4853462;29;20048;-87
2021/06/12 08:50:46;;;;;;;10.15;8.90;;;;;;;21.58;64.23;100908.50;4968488;23;20052;-88
2021/06/12 08:53:42;;;;;;;;;;;;;;;;;;;;;
2021/06/12 08:56:46;;;;;;;;;;;;;;;;;;;;;
2021/06/12 09:22:01;;;;;;;;;;;;;;;21.44;64.35;100906.50;4907755;29;20067;-85
2021/06/12 09:24:35;;;;;;;11.35;8.95;;;;;;;21.06;65.49;100915.44;4877709;29;20003;-86
2021/06/12 09:27:20;;;;;;;;;;;;;;;20.74;66.97;100924.97;4912214;29;20052;-85
2021/06/12 09:30:14;;;;;;;8.75;7.70;;;;;;;20.60;67.17;100920.28;4921232;29;20318;-86
2021/06/12 09:33:04;;;;;;;10.65;8.68;;;;;;;20.65;66.64;100916.47;4904656;29;20119;-86
2021/06/12 09:35:58;;;;;;;12.82;9.57;;;;;;;20.71;66.49;100910.00;4920695;29;20048;-87
2021/06/12 09:38:45;;;;;;;7.85;7.15;;;;;;;22.16;62.44;100907.22;4904121;29;20047;-86
2021/06/12 09:42:11;;;;;;;9.05;7.45;;;;;;;22.84;59.10;100924.91;4924966;28;20051;-84
2021/06/12 09:45:25;;;;;;;12.60;8.77;;;;;;;22.34;61.18;100917.88;4938312;29;20051;-87
2021/06/12 09:48:16;;;;;;;11.02;7.97;;;;;;;21.72;63.04;100931.75;4902163;29;20059;-85
2021/06/12 09:50:52;;;;;;;10.05;8.77;;;;;;;21.36;64.46;100927.31;4893437;29;20044;-85
2021/06/12 09:53:37;;;;;;;11.52;8.82;;;;;;;21.00;66.10;100934.34;4881524;29;20124;-87
2021/06/12 09:56:12;;;;;;;10.70;9.23;;;;;;;20.54;69.18;100945.34;4880577;29;20182;-86
2021/06/12 09:59:08;;;;;;;;;;;;;;;;;;;;;
2021/06/12 10:01:35;;;;;;;11.68;10.48;;;;;;;19.91;72.39;100951.69;4885198;29;20062;-84
2021/06/12 10:04:16;;;;;;;15.25;10.55;;;;;;;19.85;73.39;100941.31;4884466;29;20056;-86
2021/06/12 10:06:45;;;;;;;11.50;10.30;;;;;;;19.97;72.97;100943.47;4878777;29;20060;-84
2021/06/12 10:09:13;;;;;;;11.32;10.13;;;;;;;21.50;68.98;100932.81;4886412;29;20048;-85
2021/06/12 10:11:40;;;;;;;11.48;10.23;;;;;;;23.69;61.97;100921.84;4885456;29;20044;-86
2021/06/12 10:14:13;;;;;;;10.18;9.23;;;;;;;24.47;56.83;100912.66;4872004;29;20056;-84
2021/06/12 10:16:55;;;;;;;11.55;9.60;;;;;;;23.73;57.70;100916.22;4886230;29;20058;-87
2021/06/12 10:20:10;;;;;;;10.80;9.70;;;;;;;22.81;60.65;100925.06;4897744;29;20044;-86
2021/06/12 10:25:48;;;;;;;10.40;9.30;;;;;;;21.61;62.98;100927.81;4908382;29;20045;-83
2021/06/12 10:28:21;;;;;;;10.30;9.30;;;;;;;21.61;63.47;100934.97;4887343;29;20063;-84
2021/06/12 10:30:56;;;;;;;12.48;9.35;;;;;;;22.88;59.28;100941.59;4854857;29;20087;-84
2021/06/12 10:33:27;;;;;;;9.88;8.88;;;;;;;24.69;54.24;100937.16;4894011;29;20452;-84
2021/06/12 10:36:17;;;;;;;9.30;8.50;;;;;;;25.95;49.24;100927.03;4864971;29;21326;-86
2021/06/12 10:38:46;;;;;;;12.45;8.38;;;;;;;25.67;49.48;100925.41;4869595;29;20080;-85
2021/06/12 10:41:27;;;;;;;6.88;6.05;;;;;;;24.83;50.68;100938.91;4867215;29;20051;-84
2021/06/12 10:44:03;;;;;;;4.85;4.28;;;;;;;23.65;49.44;100958.59;4848947;29;20048;-84
2021/06/12 10:46:40;;;;;;;3.22;3.03;;;;;;;22.86;51.40;100944.34;4852948;29;20045;-85
2021/06/12 10:49:10;;;;;;;3.63;3.38;;;;;;;22.36;49.59;100945.31;4855507;29;20116;-86
2021/06/12 10:51:41;;;;;;;3.55;2.92;;;;;;;22.18;49.78;100947.16;4862917;29;20057;-85
2021/06/12 10:54:10;;;;;;;2.83;2.63;;;;;;;23.45;45.77;100943.72;4862106;29;20079;-86
2021/06/12 10:56:40;;;;;;;4.32;3.55;;;;;;;25.52;42.22;100930.84;4895069;29;20147;-86
2021/06/12 10:59:12;;;;;;;2.80;2.65;;;;;;;27.63;37.15;100923.91;4881964;29;20063;-84
2021/06/12 11:02:03;;;;;;;2.80;2.60;;;;;;;28.52;34.93;100926.81;4867458;29;20054;-86
2021/06/12 11:04:52;;;;;;;3.00;2.78;;;;;;;29.48;32.83;100925.25;4897306;29;20511;-85
2021/06/12 11:07:27;;;;;;;5.22;3.13;;;;;;;30.41;33.18;100929.91;4877599;29;20056;-85
2021/06/12 11:10:12;;;;;;;3.33;3.03;;;;;;;30.63;31.85;100939.69;4864020;29;20052;-85
2021/06/12 11:13:19;;;;;;;3.42;2.65;;;;;;;29.47;33.77;100936.19;4891521;29;20835;-85
2021/06/12 11:15:47;;;;;;;4.32;2.33;;;;;;;27.78;36.00;100940.69;4862287;29;20045;-86
2021/06/12 11:18:25;;;;;;;9.52;2.58;;;;;;;26.48;37.93;100948.41;4841169;29;22722;-85
2021/06/12 11:21:00;;;;;;;2.15;1.80;;;;;;;25.33;37.47;100952.66;4879625;29;20056;-85
2021/06/12 11:23:54;;;;;;;2.70;1.85;;;;;;;24.77;38.21;100955.41;4896383;29;20103;-86
2021/06/12 11:26:27;;;;;;;3.80;1.38;;;;;;;25.73;37.06;100949.13;4883209;29;20048;-85
2021/06/12 11:29:11;;;;;;;6.70;2.10;;;;;;;27.71;33.67;100954.59;4884489;29;20471;-85
2021/06/12 11:31:41;;;;;;;4.13;1.58;;;;;;;29.09;30.94;100945.63;4891106;29;20127;-85
2021/06/12 11:34:17;;;;;;;1.98;1.70;;;;;;;30.19;30.11;100945.31;4884470;29;20067;-84
2021/06/12 11:36:45;;;;;;;5.20;2.13;;;;;;;30.58;29.03;100941.94;4899383;29;20068;-87
2021/06/12 11:39:19;;;;;;;2.38;2.28;;;;;;;29.41;31.52;100958.25;4884817;29;20131;-86
2021/06/12 11:41:58;;;;;;;4.68;2.72;;;;;;;27.73;34.22;100963.44;4884035;29;20626;-87
2021/06/12 11:44:31;;;;;;;6.30;1.80;;;;;;;26.66;36.05;100972.19;4897966;29;20040;-85
2021/06/12 11:46:59;;;;;;;6.22;2.45;;;;;;;25.69;36.90;100972.59;4856150;29;20059;-85
2021/06/12 11:49:33;;;;;;;1.95;1.50;;;;;;;25.20;38.07;100962.44;4895349;29;21213;-85
2021/06/12 11:52:01;;;;;;;2.55;1.58;;;;;;;25.03;38.50;100969.78;4882441;29;20057;-87
2021/06/12 11:54:41;;;;;;;;;;;;;;;;;;;;;
2021/06/12 11:57:10;;;;;;;4.78;1.90;;;;;;;27.18;33.77;100975.63;4866359;29;20060;-85
2021/06/12 11:59:41;;;;;;;5.85;2.08;;;;;;;28.83;31.27;100973.72;4885469;29;20048;-86
2021/06/12 12:02:09;;;;;;;5.50;1.65;;;;;;;30.13;29.42;100964.75;4889002;29;20452;-84
2021/06/12 12:04:46;;;;;;;3.30;1.70;;;;;;;31.37;27.14;100970.84;4884470;29;20080;-86
2021/06/12 12:07:21;;;;;;;4.15;1.85;;;;;;;32.24;25.86;100971.78;4865027;29;20056;-85
2021/06/12 12:09:58;;;;;;;;;;;;;;;32.79;24.58;100983.69;4889877;29;20052;-87
2021/06/12 12:12:26;;;;;;;3.70;1.42;;;;;;;32.56;26.37;100980.50;4886646;29;19931;-86
2021/06/12 12:14:54;;;;;;;2.10;1.90;;;;;;;30.93;28.20;100981.16;4875010;29;21007;-87
2021/06/12 12:17:33;;;;;;;8.23;2.38;;;;;;;29.74;29.54;100994.16;4887783;29;20043;-85
2021/06/12 12:20:09;;;;;;;3.30;1.65;;;;;;;30.22;29.16;100984.69;4885506;29;20364;-87
2021/06/12 12:22:47;;;;;;;3.95;1.73;;;;;;;30.90;28.27;100987.69;4888997;29;20052;-87
2021/06/12 12:25:25;;;;;;;3.17;1.90;;;;;;;29.86;29.17;100987.72;4869822;29;20068;-86
2021/06/12 12:28:05;;;;;;;4.57;2.00;;;;;;;29.83;29.44;100979.91;4872534;29;20048;-84
2021/06/12 12:30:42;;;;;;;;;;;;;;;;;;;;;
2021/06/12 12:33:11;;;;;;;5.95;1.80;;;;;;;32.22;25.11;100995.44;4884343;29;20107;-86
2021/06/12 12:35:41;;;;;;;4.15;1.45;;;;;;;32.67;23.83;100988.41;4867498;29;20087;-86
2021/06/12 12:38:23;;;;;;;5.82;1.58;;;;;;;32.71;23.74;101000.66;4880773;29;20056;-83
2021/06/12 12:40:58;;;;;;;6.30;1.88;;;;;;;31.26;24.59;100995.31;4898936;29;20053;-86
2021/06/12 12:43:25;;;;;;;3.65;2.03;;;;;;;30.94;25.78;100993.69;4869659;29;20063;-86
2021/06/12 12:45:59;;;;;;;6.45;1.55;;;;;;;30.88;25.46;100988.84;4864943;29;20075;-87
2021/06/12 12:48:33;;;;;;;5.25;1.58;;;;;;;31.77;24.16;100988.81;4848251;29;20067;-86
2021/06/12 12:51:00;;;;;;;2.25;1.20;;;;;;;31.39;24.40;100990.50;4877993;29;20116;-84
2021/06/12 12:53:41;;;;;;;2.42;1.35;;;;;;;29.95;26.50;101013.94;4868541;29;20052;-84
2021/06/12 12:56:08;;;;;;;2.85;1.30;;;;;;;28.46;28.09;101017.06;4876377;29;21617;-86
2021/06/12 12:58:40;;;;;;;1.63;1.27;;;;;;;27.47;28.91;101008.44;4865816;29;20062;-86
2021/06/12 13:01:11;;;;;;;3.15;1.30;;;;;;;26.94;30.02;101023.97;4856797;29;20983;-85
2021/06/12 13:03:51;;;;;;;4.13;1.55;;;;;;;26.74;30.12;101005.63;4853414;29;20061;-86
2021/06/12 13:06:39;;;;;;;5.40;1.55;;;;;;;26.80;30.27;101014.22;4864278;29;20116;-85
2021/06/12 13:09:18;;;;;;;6.82;1.02;;;;;;;27.66;28.76;101029.41;4853038;29;20113;-87
2021/06/12 13:11:55;;;;;;;4.25;1.55;;;;;;;28.79;27.02;101018.06;4881520;29;20404;-85
2021/06/12 13:14:31;;;;;;;4.03;1.55;;;;;;;30.65;24.20;101016.91;4866109;29;20840;-85
2021/06/12 13:17:25;;;;;;;3.22;1.48;;;;;;;32.15;21.86;101024.06;4855892;29;20052;-88
2021/06/12 13:20:06;;;;;;;5.53;1.42;;;;;;;33.95;19.93;101012.84;4879551;29;20465;-87
2021/06/12 13:22:41;;;;;;;3.40;1.05;;;;;;;35.00;19.80;101017.31;4870358;29;20515;-87
2021/06/12 13:25:23;;;;;;;1.92;1.33;;;;;;;35.11;19.03;101023.31;4867760;29;20044;-88
2021/06/12 13:27:55;;;;;;;3.33;1.58;;;;;;;34.11;19.96;101023.78;4870666;29;20080;-87
2021/06/12 13:30:52;;;;;;;4.68;1.20;;;;;;;33.85;20.19;101031.91;4885788;29;20052;-85
2021/06/12 13:33:22;;;;;;;2.83;0.90;;;;;;;33.68;20.69;101032.78;4875784;29;20075;-88
2021/06/12 13:35:54;;;;;;;3.05;1.38;;;;;;;33.89;20.22;101044.16;4884761;29;20059;-87
2021/06/12 13:38:32;;;;;;;8.15;1.27;;;;;;;34.86;19.43;101046.88;4870681;29;20056;-87
2021/06/12 13:41:08;;;;;;;2.38;1.02;;;;;;;34.76;19.35;101043.38;4890396;29;20136;-87
2021/06/12 13:43:47;;;;;;;1.23;1.05;;;;;;;35.17;18.47;101051.69;4902222;29;20310;-89
2021/06/12 13:46:24;;;;;;;2.85;1.02;;;;;;;34.08;19.07;101048.56;4876226;29;20048;-87
2021/06/12 13:48:56;;;;;;;3.70;1.17;;;;;;;31.88;21.74;101060.03;4876726;29;20060;-87
2021/06/12 13:51:24;;;;;;;5.47;1.50;;;;;;;29.96;23.35;101055.28;4890734;29;23098;-88
2021/06/12 13:53:59;;;;;;;1.98;0.90;;;;;;;29.26;24.21;101063.69;4889669;29;20308;-87
2021/06/12 13:56:30;;;;;;;4.80;0.88;;;;;;;28.73;24.74;101060.78;4901905;29;20082;-87
2021/06/12 13:59:13;;;;;;;2.95;0.90;;;;;;;29.15;24.30;101050.22;4914711;29;20080;-87
2021/06/12 14:01:50;;;;;;;2.85;0.80;;;;;;;29.62;23.31;101061.66;4902230;29;20044;-87
2021/06/12 14:04:19;;;;;;;1.73;1.08;;;;;;;29.16;24.22;101070.81;4890329;29;20052;-87
2021/06/12 14:06:45;;;;;;;4.22;1.25;;;;;;;28.51;24.78;101082.19;4871880;29;20067;-87
2021/06/12 14:09:21;;;;;;;2.85;0.80;;;;;;;27.55;26.36;101072.41;4873351;29;20094;-87
2021/06/12 14:11:51;;;;;;;1.90;0.70;;;;;;;28.83;24.47;101077.94;4873732;29;20048;-86
2021/06/12 14:14:21;;;;;;;1.65;0.45;;;;;;;30.57;22.57;101078.03;4889599;29;20075;-87
2021/06/12 14:16:53;;;;;;;4.88;0.90;;;;;;;31.70;20.89;101074.28;4888640;29;20048;-86
2021/06/12 14:19:20;;;;;;;1.83;0.68;;;;;;;32.66;19.44;101084.28;4882644;29;22641;-86
2021/06/12 14:22:15;;;;;;;2.53;0.80;;;;;;;33.65;18.10;101071.94;4891784;29;20158;-87
2021/06/12 14:24:51;;;;;;;5.30;0.60;;;;;;;34.68;17.77;101084.13;4891429;29;20067;-88
2021/06/12 14:27:22;;;;;;;1.15;0.50;;;;;;;35.03;17.51;101074.97;4875096;29;20056;-86
2021/06/12 14:29:51;;;;;;;1.38;0.50;;;;;;;34.68;17.43;101089.56;4904420;29;20044;-88
2021/06/12 14:32:28;;;;;;;1.92;0.52;;;;;;;33.14;18.54;101099.50;4879155;29;20127;-87
2021/06/12 14:35:08;;;;;;;3.92;0.40;;;;;;;31.57;20.67;101093.47;4880388;29;20082;-86
2021/06/12 14:37:40;;;;;;;0.82;0.52;;;;;;;31.26;20.75;101098.94;4880118;29;20040;-86
2021/06/12 14:40:09;;;;;;;1.40;0.60;;;;;;;31.36;20.67;101096.28;4894009;29;20040;-88
2021/06/12 14:42:37;;;;;;;2.88;0.75;;;;;;;31.57;20.40;101088.03;4893280;29;20056;-87
2021/06/12 14:45:21;;;;;;;2.03;0.98;;;;;;;31.97;19.94;101102.50;4892723;29;20106;-86
2021/06/12 14:47:58;;;;;;;3.88;0.45;;;;;;;32.19;19.38;101093.25;4878121;29;20262;-88
2021/06/12 14:50:27;;;;;;;2.97;0.60;;;;;;;31.07;20.86;101096.19;4897261;29;20044;-86
2021/06/12 14:53:53;;;;;;;2.27;0.70;;;;;;;30.25;21.77;101109.50;4897888;29;20056;-87
2021/06/12 14:56:41;;;;;;;4.95;0.75;;;;;;;29.90;22.66;101105.25;4887433;29;20143;-87
2021/06/12 14:59:14;;;;;;;1.83;0.88;;;;;;;30.50;21.68;101099.31;4888909;29;20154;-87
2021/06/12 15:02:03;;;;;;;5.63;0.80;;;;;;;30.94;21.55;101105.38;4882568;29;20059;-86
2021/06/12 15:04:55;;;;;;;4.63;0.68;;;;;;;31.04;21.31;101108.09;4889537;29;20058;-87
2021/06/12 15:07:56;;;;;;;1.02;0.50;;;;;;;30.94;21.24;101108.06;4885823;29;20056;-87
2021/06/12 15:10:26;;;;;;;1.50;1.15;;;;;;;31.11;21.17;101097.63;4911332;29;20048;-87
2021/06/12 15:13:02;;;;;;;1.75;1.00;;;;;;;30.90;21.51;101111.16;4897496;29;20052;-87
2021/06/12 15:15:29;;;;;;;2.65;0.65;;;;;;;30.60;22.22;101116.44;4869041;29;20527;-88
2021/06/12 15:18:05;;;;;;;1.17;0.77;;;;;;;29.77;23.49;101104.53;4876894;29;20056;-85
2021/06/12 15:20:32;;;;;;;4.00;0.77;;;;;;;28.49;25.07;101108.34;4871643;29;20049;-87
2021/06/12 15:22:59;;;;;;;2.85;1.02;;;;;;;27.68;26.00;101128.81;4888706;29;20063;-87
2021/06/12 15:25:30;;;;;;;3.65;1.10;;;;;;;28.38;25.27;101130.75;4871275;29;20045;-85
2021/06/12 15:27:59;;;;;;;1.58;0.80;;;;;;;28.93;24.53;101111.25;4876510;29;20062;-87
2021/06/12 15:30:25;;;;;;;2.88;1.05;;;;;;;28.68;24.85;101115.91;4874888;29;20044;-87
2021/06/12 15:33:03;;;;;;;2.67;0.60;;;;;;;27.77;25.49;101125.44;4874685;29;21225;-84
2021/06/12 15:35:38;;;;;;;3.63;1.10;;;;;;;26.32;27.83;101133.81;4889654;29;20135;-85
2021/06/12 15:38:16;;;;;;;3.15;0.93;;;;;;;26.03;28.45;101128.53;4889092;29;20518;-86
2021/06/12 15:40:48;;;;;;;1.75;0.85;;;;;;;26.55;27.87;101115.28;4879857;29;20056;-88
2021/06/12 15:43:20;;;;;;;2.40;0.87;;;;;;;26.66;27.66;101125.25;4894313;29;20818;-85
2021/06/12 15:45:50;;;;;;;2.03;1.40;;;;;;;26.63;27.92;101137.06;4889874;29;20119;-87
2021/06/12 15:48:20;;;;;;;2.08;1.42;;;;;;;26.02;28.59;101137.56;4893804;29;20052;-87
2021/06/12 15:50:46;;;;;;;4.28;1.17;;;;;;;25.30;29.58;101139.53;4884910;29;20076;-85
2021/06/12 15:57:00;;;;;;;1.23;0.60;;;;;;;23.98;32.25;101138.53;4895797;29;20052;-87
2021/06/12 16:00:37;;;;;;;2.67;1.65;;;;;;;23.48;33.68;101135.94;4908188;29;20028;-88
2021/06/12 16:03:09;;;;;;;1.98;0.77;;;;;;;23.26;33.68;101149.63;4891764;29;20036;-87
2021/06/12 16:05:37;;;;;;;5.03;0.70;;;;;;;23.00;34.26;101149.16;4890178;29;20113;-87
2021/06/12 16:08:09;;;;;;;1.77;0.40;;;;;;;22.75;34.81;101155.81;4874712;29;20051;-87
2021/06/12 16:10:36;;;;;;;2.15;0.80;;;;;;;22.57;35.09;101148.75;4880401;29;20448;-86
2021/06/12 16:13:09;;;;;;;1.33;0.77;;;;;;;22.43;35.52;101162.78;4880638;29;20059;-88
2021/06/12 16:15:40;;;;;;;2.28;0.68;;;;;;;22.38;35.45;101163.00;4889794;29;20175;-86
2021/06/12 16:18:09;;;;;;;1.83;0.70;;;;;;;22.22;35.61;101162.91;4882178;29;20044;-87
2021/06/12 16:20:36;;;;;;;3.70;0.90;;;;;;;22.18;35.54;101168.47;4878316;29;20143;-85
2021/06/12 16:23:09;;;;;;;2.53;0.60;;;;;;;22.13;35.57;101164.22;4883071;29;20056;-87
2021/06/12 16:25:36;;;;;;;0.63;0.50;;;;;;;22.13;35.74;101166.88;4879594;29;20048;-86
2021/06/12 16:28:06;;;;;;;2.97;0.80;;;;;;;22.09;35.80;101169.78;4883273;29;20311;-86
2021/06/12 16:30:40;;;;;;;4.20;1.45;;;;;;;22.05;35.96;101176.22;4877784;29;20059;-86
2021/06/12 16:33:14;;;;;;;2.05;0.95;;;;;;;22.00;36.33;101178.22;4891579;29;20139;-87
2021/06/12 16:35:40;;;;;;;1.00;0.57;;;;;;;21.80;36.25;101188.91;4880581;29;20048;-87
2021/06/12 16:38:17;;;;;;;4.70;0.90;;;;;;;21.67;36.55;101190.44;4891245;29;20060;-88
2021/06/12 16:40:54;;;;;;;4.45;1.25;;;;;;;21.60;36.52;101188.97;4877292;29;20059;-87
2021/06/12 16:43:22;;;;;;;4.18;1.00;;;;;;;21.51;36.65;101200.03;4878554;29;20068;-86